Time;durP1;ratioP1;P1;durP2;ratioP2;P2;SDS_P1;SDS_P2;PMS_P1;PMS_P2;Temp;Humidity;BMP_temperature;BMP_pressure;BME280_temperature;BME280_humidity;BME280_pressure;Samples;Min_cycle;Max_cycle;Signal;HPM_P1;HPM_P2
2022/05/11 00:00:58;;;;;;;32.22;16.98;;;12.70;99.90;;;;;;5053274;28;20033;-76
2022/05/11 00:03:24;;;;;;;36.92;16.10;;;12.70;99.90;;;;;;5053006;28;20060;-76
2022/05/11 00:05:51;;;;;;;37.10;17.63;;;12.70;99.90;;;;;;5053018;28;20484;-76
2022/05/11 00:08:17;;;;;;;33.83;17.42;;;12.80;99.90;;;;;;5052111;28;20053;-76
2022/05/11 00:10:43;;;;;;;33.85;16.80;;;12.80;99.90;;;;;;5053026;28;20143;-76
2022/05/11 00:13:09;;;;;;;33.80;16.55;;;12.80;99.90;;;;;;5088309;28;20060;-76
2022/05/11 00:15:35;;;;;;;36.92;16.40;;;12.80;99.90;;;;;;5056925;28;20037;-76
2022/05/11 00:18:01;;;;;;;33.08;16.63;;;12.80;99.90;;;;;;5056851;28;20447;-76
2022/05/11 00:20:27;;;;;;;37.47;18.15;;;12.80;99.90;;;;;;5055642;28;20499;-76
2022/05/11 00:22:58;;;;;;;35.83;18.45;;;12.80;99.90;;;;;;5055579;28;20135;-76
2022/05/11 00:25:25;;;;;;;38.30;18.02;;;12.80;99.90;;;;;;5056867;28;20069;-76
2022/05/11 00:27:55;;;;;;;37.65;18.00;;;12.80;99.90;;;;;;5056731;28;20044;-76
2022/05/11 00:30:22;;;;;;;40.25;18.30;;;12.80;99.90;;;;;;5088952;28;20051;-77
2022/05/11 00:32:50;;;;;;;41.83;19.77;;;12.80;99.90;;;;;;5056728;28;20083;-76
2022/05/11 00:35:16;;;;;;;40.05;19.10;;;12.80;99.90;;;;;;5056634;28;20076;-77
2022/05/11 00:37:42;;;;;;;42.92;21.75;;;12.80;99.90;;;;;;5056555;28;20072;-76
2022/05/11 00:40:11;;;;;;;41.80;21.02;;;12.80;99.90;;;;;;5056512;28;20041;-76
2022/05/11 00:42:37;;;;;;;40.75;22.02;;;12.80;99.90;;;;;;5056512;28;20052;-76
2022/05/11 00:45:04;;;;;;;52.00;23.52;;;12.80;99.90;;;;;;5056254;28;20045;-76
2022/05/11 00:47:43;;;;;;;42.13;22.50;;;12.80;99.90;;;;;;5056387;28;20116;-76
2022/05/11 00:50:21;;;;;;;52.63;22.15;;;12.80;99.90;;;;;;5056528;28;20487;-76
2022/05/11 00:52:51;;;;;;;46.50;23.00;;;12.80;99.90;;;;;;5056404;28;20080;-76
2022/05/11 00:55:40;;;;;;;50.05;24.40;;;12.80;99.90;;;;;;5056226;28;20562;-76
2022/05/11 00:58:17;;;;;;;45.20;21.00;;;12.80;99.90;;;;;;5056286;28;20040;-76
2022/05/11 01:00:44;;;;;;;46.17;22.98;;;12.80;99.90;;;;;;5056191;28;20037;-76
2022/05/11 01:03:14;;;;;;;56.58;22.35;;;12.80;99.90;;;;;;5055832;28;20057;-76
2022/05/11 01:05:42;;;;;;;48.20;22.98;;;12.90;99.90;;;;;;5056037;28;20044;-78
2022/05/11 01:08:08;;;;;;;44.55;22.23;;;12.80;99.90;;;;;;5054615;28;20056;-77
2022/05/11 01:10:34;;;;;;;48.20;21.40;;;12.80;99.90;;;;;;5055882;28;20163;-76
2022/05/11 01:13:04;;;;;;;41.75;21.85;;;12.80;99.90;;;;;;5055862;28;20049;-76
2022/05/11 01:15:32;;;;;;;47.15;22.20;;;12.80;99.90;;;;;;5060722;23;20045;-79
2022/05/11 01:18:01;;;;;;;44.72;20.27;;;12.80;99.90;;;;;;5017866;28;20507;-80
2022/05/11 01:20:29;;;;;;;46.13;21.23;;;12.80;99.90;;;;;;5018201;28;20121;-79
2022/05/11 01:23:23;;;;;;;43.35;21.80;;;12.80;99.90;;;;;;5017985;28;20508;-80
2022/05/11 01:25:48;;;;;;;44.83;19.60;;;12.80;99.90;;;;;;5018244;28;20041;-80
2022/05/11 01:28:17;;;;;;;41.78;20.00;;;12.80;99.90;;;;;;5035656;28;20378;-80
2022/05/11 01:30:48;;;;;;;41.58;20.25;;;12.90;99.90;;;;;;5017997;28;20180;-80
2022/05/11 01:33:17;;;;;;;43.28;19.75;;;12.80;99.90;;;;;;5018289;28;20404;-80
2022/05/11 01:36:01;;;;;;;41.97;19.95;;;12.80;99.90;;;;;;5035563;28;20112;-80
2022/05/11 01:38:42;;;;;;;44.20;20.48;;;12.90;99.90;;;;;;5017604;28;20049;-80
2022/05/11 01:41:13;;;;;;;40.20;18.52;;;12.90;99.90;;;;;;5017690;28;20045;-80
2022/05/11 01:43:40;;;;;;;41.78;19.92;;;12.90;99.90;;;;;;5035188;28;20045;-80
2022/05/11 01:46:07;;;;;;;44.40;19.42;;;12.90;99.90;;;;;;5017485;28;20547;-80
2022/05/11 01:48:33;;;;;;;45.28;20.00;;;12.80;99.90;;;;;;5035255;28;20115;-80
2022/05/11 01:50:59;;;;;;;43.97;20.00;;;12.90;99.90;;;;;;5017357;28;20523;-80
2022/05/11 01:53:26;;;;;;;36.80;18.65;;;12.90;99.90;;;;;;5017384;28;20053;-80
2022/05/11 01:55:52;;;;;;;46.53;19.15;;;12.90;99.90;;;;;;5017253;28;20050;-80
2022/05/11 01:58:21;;;;;;;41.17;20.15;;;12.80;99.90;;;;;;5017429;28;20045;-80
2022/05/11 02:00:47;;;;;;;44.03;20.95;;;12.90;99.90;;;;;;5035066;28;20113;-80
2022/05/11 02:03:16;;;;;;;45.92;19.70;;;12.90;99.90;;;;;;5035052;28;20128;-80
2022/05/11 02:08:27;;;;;;;45.25;20.15;;;12.80;99.90;;;;;;5017846;28;20484;-81
2022/05/11 02:10:53;;;;;;;50.67;19.65;;;12.80;99.90;;;;;;5034634;28;20481;-81
2022/05/11 02:13:19;;;;;;;42.83;19.17;;;12.90;99.90;;;;;;5017211;28;20111;-78
2022/05/11 02:15:44;;;;;;;40.30;19.50;;;12.80;99.90;;;;;;5034442;28;20420;-78
2022/05/11 02:18:10;;;;;;;42.22;20.05;;;12.80;99.90;;;;;;5034759;28;20073;-79
2022/05/11 02:20:36;;;;;;;45.40;20.73;;;12.80;99.90;;;;;;5016895;28;20087;-79
2022/05/11 02:23:02;;;;;;;41.60;19.27;;;12.80;99.90;;;;;;5016813;28;20058;-79
2022/05/11 02:25:28;;;;;;;44.67;18.67;;;12.80;99.90;;;;;;5034544;28;20045;-78
2022/05/11 02:27:54;;;;;;;46.00;20.50;;;12.80;99.90;;;;;;5016943;28;20612;-79
2022/05/11 02:30:30;;;;;;;44.38;20.48;;;12.80;99.90;;;;;;5016920;28;20052;-79
2022/05/11 02:32:56;;;;;;;39.95;18.80;;;12.80;99.90;;;;;;5017098;28;20049;-79
2022/05/11 02:35:24;;;;;;;45.63;20.48;;;12.80;99.90;;;;;;5016788;28;20107;-78
2022/05/11 02:37:59;;;;;;;42.25;19.75;;;12.80;99.90;;;;;;5034156;28;20481;-78
2022/05/11 02:40:27;;;;;;;44.15;19.25;;;12.80;99.90;;;;;;5016551;28;20117;-78
2022/05/11 02:42:54;;;;;;;46.13;18.77;;;12.80;99.90;;;;;;5016529;28;20096;-79
2022/05/11 02:45:20;;;;;;;44.58;20.55;;;12.80;99.90;;;;;;5016495;28;20041;-79
2022/05/11 02:47:47;;;;;;;41.85;19.90;;;12.80;99.90;;;;;;5016411;28;20504;-79
2022/05/11 02:50:16;;;;;;;46.05;20.05;;;12.80;99.90;;;;;;5016376;28;20056;-78
2022/05/11 02:52:51;;;;;;;46.70;18.80;;;12.70;99.90;;;;;;5033991;28;20492;-78
2022/05/11 02:55:17;;;;;;;40.47;18.45;;;12.80;99.90;;;;;;5034117;28;20049;-78
2022/05/11 02:57:42;;;;;;;44.22;18.48;;;12.80;99.90;;;;;;5016329;28;20049;-78
2022/05/11 03:00:11;;;;;;;42.22;18.35;;;12.80;99.90;;;;;;5033989;28;20045;-78
2022/05/11 03:02:38;;;;;;;39.47;17.75;;;12.80;99.90;;;;;;5016527;28;20064;-78
2022/05/11 03:05:04;;;;;;;39.65;18.40;;;12.80;99.90;;;;;;5016335;28;20111;-79
2022/05/11 03:07:33;;;;;;;37.53;17.27;;;12.80;99.90;;;;;;5033866;28;20033;-79
2022/05/11 03:10:01;;;;;;;40.78;17.80;;;12.90;99.90;;;;;;5016107;28;20055;-78
2022/05/11 03:12:27;;;;;;;42.15;17.38;;;12.90;99.90;;;;;;5016177;28;20053;-78
2022/05/11 03:14:57;;;;;;;43.90;17.10;;;12.80;99.90;;;;;;5033525;28;20060;-79
2022/05/11 03:17:23;;;;;;;38.08;15.43;;;12.80;99.90;;;;;;5034041;28;20057;-78
2022/05/11 03:19:49;;;;;;;41.67;17.98;;;12.90;99.90;;;;;;5016103;28;20048;-78
2022/05/11 03:22:14;;;;;;;44.90;16.30;;;12.80;99.90;;;;;;5015916;28;20045;-80
2022/05/11 03:24:40;;;;;;;39.65;15.50;;;12.80;99.90;;;;;;5015951;28;20042;-80
2022/05/11 03:27:06;;;;;;;42.65;15.90;;;12.80;99.90;;;;;;5015962;28;20056;-80
2022/05/11 03:29:33;;;;;;;40.15;16.20;;;12.80;99.90;;;;;;5015701;28;20129;-79
2022/05/11 03:34:43;;;;;;;39.60;15.80;;;12.80;99.90;;;;;;5015725;28;20512;-79
2022/05/11 03:37:15;;;;;;;36.63;14.80;;;12.80;99.90;;;;;;5015896;28;20041;-79
2022/05/11 03:39:41;;;;;;;32.65;14.05;;;12.90;99.90;;;;;;5033361;28;20037;-79
2022/05/11 03:42:16;;;;;;;33.25;14.93;;;12.90;99.90;;;;;;5015394;28;20103;-79
2022/05/11 03:44:41;;;;;;;32.03;14.63;;;12.90;99.90;;;;;;5033137;28;20057;-79
2022/05/11 03:47:07;;;;;;;41.53;15.07;;;12.90;99.90;;;;;;5016678;28;20054;-79
2022/05/11 03:49:33;;;;;;;36.28;15.77;;;12.90;99.90;;;;;;5019102;28;20045;-79
2022/05/11 03:52:00;;;;;;;34.20;14.82;;;12.90;99.90;;;;;;5017996;28;20542;-78
2022/05/11 03:54:26;;;;;;;37.35;15.65;;;12.90;99.90;;;;;;5037140;28;20520;-79
2022/05/11 03:56:52;;;;;;;35.83;15.85;;;12.80;99.90;;;;;;5019336;28;20042;-78
2022/05/11 03:59:17;;;;;;;38.10;15.65;;;12.90;99.90;;;;;;5019561;28;20060;-79
2022/05/11 04:01:43;;;;;;;31.17;14.73;;;12.80;99.90;;;;;;5019243;28;20412;-79
2022/05/11 04:04:09;;;;;;;30.05;13.95;;;12.80;99.90;;;;;;5019730;28;20065;-79
2022/05/11 04:06:34;;;;;;;37.75;15.57;;;12.80;99.90;;;;;;5036913;28;20044;-79
2022/05/11 04:09:00;;;;;;;34.20;15.23;;;12.80;99.90;;;;;;5036946;28;20046;-79
2022/05/11 04:11:27;;;;;;;33.72;14.90;;;12.80;99.90;;;;;;5017811;28;20129;-79
2022/05/11 04:13:52;;;;;;;36.08;15.27;;;12.80;99.90;;;;;;5036947;28;20121;-79
2022/05/11 04:16:19;;;;;;;35.28;15.00;;;12.90;99.90;;;;;;5018809;28;20128;-79
2022/05/11 04:18:46;;;;;;;34.60;16.15;;;12.80;99.90;;;;;;5018972;28;20504;-79
2022/05/11 04:21:12;;;;;;;34.28;14.88;;;12.80;99.90;;;;;;5036444;28;20374;-79
2022/05/11 04:23:40;;;;;;;38.95;14.13;;;12.90;99.90;;;;;;5036658;28;20048;-79
2022/05/11 04:26:11;;;;;;;35.78;15.88;;;12.90;99.90;;;;;;5019008;28;20477;-79
2022/05/11 04:28:43;;;;;;;29.98;14.25;;;12.90;99.90;;;;;;5018850;28;20053;-79
2022/05/11 04:31:11;;;;;;;34.45;16.15;;;12.90;99.90;;;;;;5018744;28;20053;-79
2022/05/11 04:33:36;;;;;;;34.80;14.88;;;12.90;99.90;;;;;;5036487;28;20041;-79
2022/05/11 04:36:04;;;;;;;34.38;14.65;;;12.90;99.90;;;;;;5036424;28;20046;-79
2022/05/11 04:38:29;;;;;;;35.45;15.82;;;13.00;99.90;;;;;;5018823;28;20052;-79
2022/05/11 04:40:55;;;;;;;39.88;14.30;;;13.00;99.90;;;;;;5018864;28;20140;-79
2022/05/11 04:43:21;;;;;;;36.72;14.38;;;13.00;99.90;;;;;;5018617;28;20057;-79
2022/05/11 04:45:47;;;;;;;32.45;14.98;;;13.00;99.90;;;;;;5018483;28;20052;-79
2022/05/11 04:48:15;;;;;;;31.40;14.20;;;13.10;99.90;;;;;;5018481;28;20095;-79
2022/05/11 04:50:42;;;;;;;31.30;13.10;;;13.10;99.90;;;;;;5018311;28;20116;-79
2022/05/11 04:53:10;;;;;;;31.25;13.27;;;13.10;99.90;;;;;;5035990;28;20544;-79
2022/05/11 04:55:36;;;;;;;31.75;13.15;;;13.00;99.90;;;;;;5018311;28;20516;-79
2022/05/11 04:58:04;;;;;;;27.88;13.50;;;13.10;99.90;;;;;;5018196;28;20530;-79
2022/05/11 05:00:30;;;;;;;32.20;12.70;;;13.10;99.90;;;;;;5036044;28;20050;-79
2022/05/11 05:02:56;;;;;;;34.45;13.40;;;13.00;99.90;;;;;;5035976;28;20507;-79
2022/05/11 05:05:24;;;;;;;33.03;13.07;;;13.10;99.90;;;;;;5035992;28;20054;-79
2022/05/11 05:07:50;;;;;;;33.03;11.55;;;13.10;99.90;;;;;;5035942;28;20041;-79
2022/05/11 05:10:16;;;;;;;29.65;11.98;;;13.20;99.90;;;;;;5035818;28;20115;-79
2022/05/11 05:12:43;;;;;;;28.80;12.02;;;13.10;99.90;;;;;;5035859;28;20507;-79
2022/05/11 05:15:11;;;;;;;29.15;11.98;;;13.10;99.90;;;;;;5017909;28;20103;-79
2022/05/11 05:17:37;;;;;;;27.52;11.38;;;13.20;99.90;;;;;;5035679;28;20111;-79
2022/05/11 05:20:05;;;;;;;36.45;12.15;;;13.20;99.90;;;;;;5035601;28;20045;-79
2022/05/11 05:22:30;;;;;;;35.35;11.77;;;13.20;99.90;;;;;;5017529;28;20041;-79
2022/05/11 05:24:56;;;;;;;26.23;10.65;;;13.20;99.90;;;;;;5017681;28;20053;-79
2022/05/11 05:27:22;;;;;;;33.08;11.85;;;13.20;99.90;;;;;;5035635;28;20065;-79
2022/05/11 05:32:41;;;;;;;29.45;10.60;;;13.30;99.90;;;;;;5035423;28;20050;-80
2022/05/11 05:35:09;;;;;;;27.50;10.38;;;13.30;99.90;;;;;;5035489;28;20038;-80
2022/05/11 05:37:35;;;;;;;29.65;10.30;;;13.30;99.90;;;;;;5018131;28;20049;-79
2022/05/11 05:40:01;;;;;;;29.33;11.38;;;13.30;99.90;;;;;;5035006;28;20466;-80
2022/05/11 05:42:28;;;;;;;30.17;10.38;;;13.30;99.90;;;;;;5017308;28;20041;-80
2022/05/11 05:44:54;;;;;;;24.05;10.77;;;13.40;99.90;;;;;;5034905;28;20539;-80
2022/05/11 05:47:21;;;;;;;26.08;10.60;;;13.40;99.90;;;;;;5035275;28;20049;-80
2022/05/11 05:49:47;;;;;;;30.58;10.60;;;13.50;99.90;;;;;;5035193;28;20033;-80
2022/05/11 05:52:18;;;;;;;32.20;11.57;;;13.50;99.90;;;;;;5017067;28;20045;-80
2022/05/11 05:54:45;;;;;;;24.05;10.48;;;13.50;99.90;;;;;;5017174;28;20072;-80
2022/05/11 05:57:12;;;;;;;31.60;11.68;;;13.60;99.90;;;;;;5016927;28;20049;-80
2022/05/11 05:59:38;;;;;;;33.67;10.77;;;13.70;99.90;;;;;;5034682;28;20489;-80
2022/05/11 06:02:06;;;;;;;30.65;10.98;;;13.70;99.90;;;;;;5017255;28;20057;-80
2022/05/11 06:04:32;;;;;;;30.05;10.80;;;13.80;99.90;;;;;;5017203;28;20037;-78
2022/05/11 06:06:57;;;;;;;26.80;11.32;;;13.90;99.90;;;;;;5034794;28;20172;-78
2022/05/11 06:09:23;;;;;;;30.80;11.60;;;14.00;99.90;;;;;;5016625;28;20045;-79
2022/05/11 06:11:48;;;;;;;33.13;11.48;;;14.00;99.90;;;;;;5034326;28;20400;-79
2022/05/11 06:14:14;;;;;;;26.23;10.20;;;14.10;99.90;;;;;;5016857;28;20042;-78
2022/05/11 06:16:40;;;;;;;24.88;10.95;;;14.10;99.90;;;;;;5034385;28;20049;-78
2022/05/11 06:19:05;;;;;;;32.33;10.77;;;14.20;99.90;;;;;;5034343;28;20049;-79
2022/05/11 06:21:33;;;;;;;29.45;11.45;;;14.20;99.90;;;;;;5016757;28;20458;-79
2022/05/11 06:23:59;;;;;;;23.02;10.18;;;14.30;99.90;;;;;;5034486;28;20135;-79
2022/05/11 06:26:24;;;;;;;30.30;10.10;;;14.30;99.90;;;;;;5034195;28;20064;-78
2022/05/11 06:28:50;;;;;;;25.20;9.55;;;14.40;99.90;;;;;;5034455;28;20048;-79
2022/05/11 06:31:16;;;;;;;24.48;9.73;;;14.40;99.90;;;;;;5034137;28;20111;-79
2022/05/11 06:33:46;;;;;;;30.35;10.15;;;14.40;99.90;;;;;;5015140;28;20056;-78
2022/05/11 06:36:12;;;;;;;32.50;10.48;;;14.40;99.90;;;;;;5033945;28;20052;-78
2022/05/11 06:38:38;;;;;;;24.35;9.32;;;14.40;99.90;;;;;;5016201;28;20481;-78
2022/05/11 06:41:13;;;;;;;29.90;10.48;;;14.40;99.90;;;;;;5014718;28;20095;-78
2022/05/11 06:43:38;;;;;;;28.65;9.95;;;14.40;99.90;;;;;;5032626;28;20408;-77
2022/05/11 06:46:04;;;;;;;28.63;9.88;;;14.50;99.90;;;;;;5016313;28;20484;-78
2022/05/11 06:48:31;;;;;;;29.15;9.13;;;14.50;99.90;;;;;;5016024;28;20492;-78
2022/05/11 06:50:57;;;;;;;29.17;9.70;;;14.60;99.90;;;;;;5033596;28;20132;-78
2022/05/11 06:53:23;;;;;;;31.08;11.43;;;14.60;99.90;;;;;;5033906;28;20049;-78
2022/05/11 07:01:17;;;;;;;34.67;10.43;;;14.90;99.90;;;;;;5015891;28;20049;-78
2022/05/11 07:03:42;;;;;;;25.60;7.97;;;14.90;99.90;;;;;;5033558;28;20260;-78
2022/05/11 07:06:08;;;;;;;24.92;8.82;;;15.00;99.90;;;;;;5033324;28;20060;-77
2022/05/11 07:08:42;;;;;;;25.73;8.32;;;15.00;99.90;;;;;;5030014;28;20053;-77
2022/05/11 07:13:55;;;;;;;24.88;7.93;;;15.00;99.90;;;;;;5033664;28;20049;-77
2022/05/11 07:16:21;;;;;;;27.30;8.70;;;15.10;99.90;;;;;;5048805;28;20132;-78
2022/05/11 07:18:47;;;;;;;30.38;9.18;;;15.10;99.90;;;;;;5035135;28;20123;-77
2022/05/11 07:21:13;;;;;;;21.90;8.27;;;15.10;99.90;;;;;;5052736;28;20053;-77
2022/05/11 07:23:39;;;;;;;23.58;8.35;;;15.10;99.90;;;;;;5034939;28;20392;-77
2022/05/11 07:26:04;;;;;;;23.73;8.15;;;15.10;99.90;;;;;;5011703;28;20045;-77
2022/05/11 07:28:30;;;;;;;20.38;7.72;;;15.20;99.90;;;;;;5022397;28;20045;-77
2022/05/11 07:30:56;;;;;;;24.73;8.00;;;15.20;99.90;;;;;;5015372;28;20042;-77
2022/05/11 07:33:21;;;;;;;29.00;9.70;;;15.30;99.90;;;;;;5033321;28;20390;-77
2022/05/11 07:35:47;;;;;;;27.83;8.10;;;15.20;99.90;;;;;;5015350;28;20044;-77
2022/05/11 07:38:17;;;;;;;24.45;7.90;;;15.30;99.90;;;;;;5015636;28;20046;-77
2022/05/11 07:40:44;;;;;;;26.27;7.88;;;15.30;99.90;;;;;;5015216;28;20520;-76
2022/05/11 07:43:11;;;;;;;34.22;8.23;;;15.40;99.90;;;;;;5015648;28;20049;-77
2022/05/11 07:45:38;;;;;;;33.55;8.43;;;15.50;99.90;;;;;;5032693;28;20049;-77
2022/05/11 07:48:05;;;;;;;28.50;7.93;;;15.70;99.90;;;;;;5033163;28;20045;-77
2022/05/11 07:50:31;;;;;;;28.00;7.50;;;15.70;99.90;;;;;;5015112;28;20386;-77
2022/05/11 07:52:57;;;;;;;22.45;7.40;;;15.90;99.90;;;;;;5015365;28;20041;-77
2022/05/11 07:55:25;;;;;;;30.05;7.53;;;16.10;99.90;;;;;;5026291;28;20056;-77
2022/05/11 08:00:37;;;;;;;22.63;6.40;;;16.30;99.90;;;;;;5033085;28;20056;-77
2022/05/11 08:03:05;;;;;;;23.17;7.05;;;16.40;99.90;;;;;;5032765;28;20048;-77
2022/05/11 08:05:32;;;;;;;25.85;6.45;;;16.60;99.90;;;;;;5014825;28;20250;-77
2022/05/11 08:08:01;;;;;;;23.30;5.88;;;16.70;99.90;;;;;;5032928;28;20045;-77
2022/05/11 08:10:33;;;;;;;23.73;5.65;;;16.70;99.90;;;;;;5014980;28;20126;-77
2022/05/11 08:13:00;;;;;;;19.20;4.90;;;16.90;99.90;;;;;;5014981;28;20050;-76
2022/05/11 08:15:27;;;;;;;22.35;6.90;;;16.80;99.90;;;;;;5014250;28;20300;-77
2022/05/11 08:17:54;;;;;;;20.48;5.93;;;17.00;99.90;;;;;;5014588;28;20236;-76
2022/05/11 08:20:23;;;;;;;21.17;5.97;;;17.10;99.90;;;;;;5014679;28;20052;-77
2022/05/11 08:22:51;;;;;;;25.65;6.05;;;17.20;99.90;;;;;;5032505;28;20056;-76
2022/05/11 08:25:20;;;;;;;26.00;6.45;;;17.40;99.90;;;;;;5013922;28;20049;-77
2022/05/11 08:27:47;;;;;;;25.80;5.70;;;17.60;99.90;;;;;;5032804;28;20049;-76
2022/05/11 08:35:43;;;;;;;29.52;6.65;;;18.00;99.90;;;;;;5017818;28;20618;-76
2022/05/11 08:38:10;;;;;;;41.75;7.35;;;18.20;99.90;;;;;;5018198;28;20128;-77
2022/05/11 08:40:37;;;;;;;26.65;7.25;;;18.20;99.90;;;;;;5036377;28;20118;-77
2022/05/11 08:43:11;;;;;;;17.67;5.60;;;18.00;99.90;;;;;;5036381;28;20049;-77
2022/05/11 08:46:02;;;;;;;20.90;5.55;;;17.90;99.90;;;;;;5036488;28;20042;-77
2022/05/11 08:48:36;;;;;;;22.55;6.45;;;18.10;99.90;;;;;;5018540;28;20072;-77
2022/05/11 08:51:03;;;;;;;23.67;5.75;;;18.20;99.90;;;;;;5018153;28;20056;-78
2022/05/11 08:53:32;;;;;;;30.63;6.82;;;18.30;99.90;;;;;;5035201;28;20041;-78
2022/05/11 08:56:04;;;;;;;22.23;5.68;;;18.30;99.90;;;;;;5035154;28;20052;-78
2022/05/11 08:58:48;;;;;;;19.20;5.63;;;18.40;99.90;;;;;;5018267;28;20049;-79
2022/05/11 09:01:34;;;;;;;22.77;5.93;;;18.50;99.90;;;;;;5018174;28;20135;-76
2022/05/11 09:04:04;;;;;;;28.38;7.60;;;18.50;99.90;;;;;;5017163;28;20447;-82
2022/05/11 09:06:30;;;;;;;22.60;6.03;;;18.70;99.90;;;;;;5016235;28;20128;-88
2022/05/11 09:09:02;;;;;;;26.38;6.45;;;18.80;99.90;;;;;;5018169;28;20168;-88
2022/05/11 09:11:33;;;;;;;21.75;5.35;;;18.80;99.90;;;;;;5035981;28;20048;-88
2022/05/11 09:14:00;;;;;;;25.05;5.95;;;18.70;99.90;;;;;;5035199;28;20503;-85
2022/05/11 09:16:45;;;;;;;24.15;5.85;;;18.60;99.90;;;;;;5017351;28;20054;-87
2022/05/11 09:19:19;;;;;;;25.30;6.65;;;18.80;99.90;;;;;;5035052;28;20477;-90
2022/05/11 09:21:50;;;;;;;17.70;4.40;;;18.80;99.90;;;;;;5035595;28;20104;-91
2022/05/11 09:24:21;;;;;;;17.20;4.55;;;18.80;99.90;;;;;;5017712;28;20116;-90
2022/05/11 09:27:01;;;;;;;15.98;3.67;;;18.70;99.90;;;;;;5017546;28;20064;-93
2022/05/11 09:29:42;;;;;;;13.35;3.30;;;18.70;99.90;;;;;;5017702;28;20457;-88
2022/05/11 09:32:38;;;;;;;17.55;3.95;;;18.70;99.90;;;;;;5017481;28;20052;-89
2022/05/11 09:35:21;;;;;;;13.85;3.70;;;19.20;99.90;;;;;;5005151;28;20053;-90
2022/05/11 09:38:01;;;;;;;20.88;3.58;;;19.40;99.90;;;;;;5017077;28;20045;-88
2022/05/11 09:40:29;;;;;;;19.38;3.28;;;19.70;99.90;;;;;;5017226;28;20489;-88
2022/05/11 09:43:04;;;;;;;10.93;2.53;;;19.80;99.90;;;;;;5017431;28;20481;-88
2022/05/11 09:45:47;;;;;;;13.57;3.10;;;19.90;99.90;;;;;;5016399;28;20081;-88
2022/05/11 09:48:20;;;;;;;;;;;20.00;99.90;;;;;;5017996;28;20393;-90
2022/05/11 09:50:52;;;;;;;16.42;2.63;;;20.10;99.90;;;;;;5034358;28;19921;-89
2022/05/11 09:53:36;;;;;;;;;;;20.20;99.90;;;;;;5017852;28;20049;-87
2022/05/11 09:56:17;;;;;;;16.05;2.53;;;20.30;99.90;;;;;;5017087;28;19921;-90
2022/05/11 09:58:42;;;;;;;14.88;2.65;;;20.40;99.90;;;;;;5034892;28;20041;-89
2022/05/11 10:01:26;;;;;;;18.13;3.35;;;20.70;99.90;;;;;;5034220;28;20064;-86
2022/05/11 10:03:57;;;;;;;18.63;3.25;;;20.60;99.90;;;;;;5016691;28;20409;-87
2022/05/11 10:06:24;;;;;;;17.70;3.28;;;20.60;99.90;;;;;;5016801;28;20128;-89
2022/05/11 10:08:52;;;;;;;16.50;3.13;;;20.60;99.90;;;;;;5034367;28;20049;-88
2022/05/11 10:11:33;;;;;;;14.73;3.20;;;20.30;99.90;;;;;;5034394;28;20045;-91
2022/05/11 10:23:00;;;;;;;19.45;4.07;;;20.20;99.90;;;;;;5016460;28;20064;-90
2022/05/11 10:25:39;;;;;;;19.23;3.58;;;20.30;99.90;;;;;;5016492;28;20057;-88
2022/05/11 10:28:20;;;;;;;13.15;2.50;;;20.30;99.90;;;;;;5016315;28;20512;-87
2022/05/11 10:30:56;;;;;;;17.90;3.55;;;20.10;99.90;;;;;;5033872;28;20124;-91
2022/05/11 10:33:46;;;;;;;21.02;3.70;;;20.00;99.90;;;;;;5016204;28;20103;-86
2022/05/11 10:36:38;;;;;;;19.00;3.85;;;19.90;99.90;;;;;;5016206;28;20049;-82
2022/05/11 10:39:39;;;;;;;14.57;3.45;;;20.00;99.90;;;;;;4976732;28;20501;-91
2022/05/11 10:42:23;;;;;;;14.82;3.25;;;20.00;99.90;;;;;;5002207;28;20053;-91
2022/05/11 10:45:00;;;;;;;20.55;3.75;;;20.00;99.90;;;;;;5016131;28;20443;-88
2022/05/11 10:48:05;;;;;;;14.95;4.00;;;20.00;99.90;;;;;;5033785;28;20041;-93
2022/05/11 10:50:51;;;;;;;15.52;3.70;;;20.10;99.90;;;;;;5014685;28;20146;-92
2022/05/11 10:53:33;;;;;;;19.88;3.30;;;19.90;99.90;;;;;;5016055;28;20049;-88
2022/05/11 10:56:34;;;;;;;20.20;3.47;;;19.80;99.90;;;;;;5033242;28;20049;-88
2022/05/11 10:59:12;;;;;;;18.27;3.63;;;20.00;99.90;;;;;;5015756;28;20052;-89
2022/05/11 11:01:49;;;;;;;23.05;3.70;;;20.00;99.90;;;;;;5016022;28;20051;-89
2022/05/11 11:04:37;;;;;;;19.98;4.07;;;20.10;99.90;;;;;;5016305;28;20460;-94
2022/05/11 11:07:21;;;;;;;17.90;3.17;;;20.20;99.90;;;;;;5015794;28;20053;-94
2022/05/11 11:10:04;;;;;;;16.90;3.13;;;20.10;99.90;;;;;;5015883;28;20048;-92
2022/05/11 11:12:44;;;;;;;20.70;4.50;;;20.10;99.90;;;;;;5015574;28;20045;-86
2022/05/11 11:15:13;;;;;;;17.33;4.82;;;20.00;99.90;;;;;;5033274;28;20053;-84
2022/05/11 11:17:48;;;;;;;18.98;4.72;;;19.90;99.90;;;;;;5015399;28;20058;-85
2022/05/11 11:20:20;;;;;;;28.88;5.55;;;20.20;99.90;;;;;;5033105;28;20060;-82
2022/05/11 11:23:08;;;;;;;21.40;4.60;;;20.30;99.90;;;;;;5015774;28;20489;-82
2022/05/11 11:25:56;;;;;;;19.30;4.13;;;20.60;99.90;;;;;;5033001;28;20053;-82
2022/05/11 11:28:28;;;;;;;18.98;4.18;;;20.90;99.90;;;;;;5033300;28;20516;-79
2022/05/11 11:30:59;;;;;;;22.92;4.38;;;20.90;99.90;;;;;;5015745;28;20516;-79
2022/05/11 11:33:33;;;;;;;15.60;4.23;;;21.10;99.90;;;;;;5015722;28;20432;-80
2022/05/11 11:36:27;;;;;;;20.77;4.30;;;20.90;99.90;;;;;;5015874;28;20044;-79
2022/05/11 11:38:58;;;;;;;24.90;4.80;;;20.70;99.90;;;;;;5033359;28;20072;-80
2022/05/11 11:41:53;;;;;;;19.83;4.57;;;20.60;99.90;;;;;;5033465;28;20104;-80
2022/05/11 11:44:30;;;;;;;20.42;4.30;;;20.60;99.90;;;;;;5032861;28;20049;-80
2022/05/11 11:46:57;;;;;;;27.25;4.80;;;20.20;99.90;;;;;;5015562;28;20401;-79
2022/05/11 11:49:26;;;;;;;22.75;5.25;;;19.90;99.90;;;;;;5015486;28;20042;-80
2022/05/11 11:51:58;;;;;;;22.88;5.70;;;20.00;99.90;;;;;;5015370;28;20056;-80
2022/05/11 11:54:43;;;;;;;22.73;4.70;;;20.30;99.90;;;;;;5015748;28;20092;-80
2022/05/11 11:57:16;;;;;;;19.48;5.15;;;20.10;99.90;;;;;;5033169;28;20057;-80
2022/05/11 11:59:48;;;;;;;23.77;5.95;;;20.00;99.90;;;;;;5015016;28;20567;-79
2022/05/11 12:02:24;;;;;;;25.08;5.68;;;20.20;99.90;;;;;;5015117;28;20119;-80
2022/05/11 12:05:07;;;;;;;25.17;5.65;;;20.20;99.90;;;;;;5015279;28;20050;-80
2022/05/11 12:16:54;;;;;;;15.67;4.70;;;20.00;99.90;;;;;;5018747;28;20064;-80
2022/05/11 12:19:21;;;;;;;27.05;6.10;;;19.80;99.90;;;;;;5019043;28;20417;-80
2022/05/11 12:22:12;;;;;;;27.48;6.43;;;20.00;99.90;;;;;;5036809;28;20044;-79
2022/05/11 12:24:47;;;;;;;22.08;5.25;;;20.30;99.90;;;;;;5024991;28;20127;-80
2022/05/11 12:27:34;;;;;;;24.25;5.50;;;20.40;99.90;;;;;;5018802;28;20053;-80
2022/05/11 12:30:07;;;;;;;28.40;6.85;;;20.80;99.90;;;;;;5018826;28;20037;-79
2022/05/11 12:32:42;;;;;;;23.88;5.97;;;21.00;99.90;;;;;;5018801;28;20047;-79
2022/05/11 12:35:24;;;;;;;25.25;5.53;;;20.90;99.90;;;;;;5036413;28;20048;-79
2022/05/11 12:37:55;;;;;;;26.17;6.30;;;20.70;99.90;;;;;;5018710;28;20041;-79
2022/05/11 12:40:21;;;;;;;25.92;7.25;;;20.60;99.90;;;;;;5018653;28;20041;-79
2022/05/11 12:42:56;;;;;;;37.20;6.65;;;20.30;99.90;;;;;;5036246;28;20515;-79
2022/05/11 12:45:35;;;;;;;28.80;6.53;;;20.10;99.90;;;;;;5018821;28;20041;-80
2022/05/11 12:48:03;;;;;;;24.92;7.45;;;19.80;99.90;;;;;;5018424;28;20095;-80
2022/05/11 12:50:33;;;;;;;32.85;7.10;;;19.50;99.90;;;;;;5018353;28;20401;-79
2022/05/11 12:53:17;;;;;;;35.30;6.82;;;19.30;99.90;;;;;;5018329;28;20119;-79
2022/05/11 12:56:20;;;;;;;28.90;8.20;;;19.30;99.90;;;;;;5018594;28;20495;-79
2022/05/11 12:58:55;;;;;;;38.08;7.80;;;19.20;99.90;;;;;;4994530;28;20069;-80
2022/05/11 13:01:24;;;;;;;32.10;7.88;;;19.10;99.90;;;;;;5018432;28;20485;-80
2022/05/11 13:03:52;;;;;;;32.42;7.72;;;18.90;99.90;;;;;;5018463;28;20489;-80
2022/05/11 13:06:35;;;;;;;27.52;7.88;;;18.90;99.90;;;;;;5018305;28;20049;-80
2022/05/11 13:09:03;;;;;;;;;;;18.80;99.90;;;;;;5018613;28;20529;-80
2022/05/11 13:11:31;;;;;;;27.85;7.65;;;18.70;99.90;;;;;;5018225;28;20012;-80
2022/05/11 13:13:58;;;;;;;34.78;8.38;;;18.50;99.90;;;;;;5018247;28;20057;-79
2022/05/11 13:16:31;;;;;;;39.42;8.18;;;18.40;99.90;;;;;;5017872;28;20049;-79
2022/05/11 13:19:04;;;;;;;;;;;18.30;99.90;;;;;;5035529;28;20045;-79
2022/05/11 13:21:36;;;;;;;30.75;8.45;;;18.20;99.90;;;;;;5035315;28;19920;-79
2022/05/11 13:24:04;;;;;;;33.65;9.07;;;18.10;99.90;;;;;;5018120;28;20077;-79
2022/05/11 13:26:56;;;;;;;28.70;9.02;;;18.10;99.90;;;;;;5035767;28;20075;-79
2022/05/11 13:29:27;;;;;;;34.50;8.57;;;18.00;99.90;;;;;;5031352;28;20057;-80
2022/05/11 13:32:10;;;;;;;43.15;10.43;;;18.00;99.90;;;;;;5017594;28;20053;-80
2022/05/11 13:34:42;;;;;;;36.17;8.90;;;17.90;99.90;;;;;;5017433;28;20045;-81